sensor_id;sensor_type;location;lat;lon;timestamp;P1;durP1;ratioP1;P2;durP2;ratioP2
76610;SDS011;65503;48.534;9.062;2024-02-26T00:01:37;7.40;;;3.50;;
76610;SDS011;65503;48.534;9.062;2024-02-26T00:04:03;8.60;;;3.30;;
76610;SDS011;65503;48.534;9.062;2024-02-26T00:06:30;7.68;;;3.13;;
76610;SDS011;65503;48.534;9.062;2024-02-26T00:08:58;7.00;;;2.90;;
76610;SDS011;65503;48.534;9.062;2024-02-26T00:11:25;4.80;;;2.42;;
76610;SDS011;65503;48.534;9.062;2024-02-26T00:13:51;4.07;;;1.95;;
76610;SDS011;65503;48.534;9.062;2024-02-26T00:16:18;4.25;;;1.75;;
76610;SDS011;65503;48.534;9.062;2024-02-26T00:18:44;3.13;;;1.40;;
76610;SDS011;65503;48.534;9.062;2024-02-26T00:21:15;3.25;;;1.55;;
76610;SDS011;65503;48.534;9.062;2024-02-26T00:23:42;2.63;;;1.15;;
76610;SDS011;65503;48.534;9.062;2024-02-26T00:26:09;3.25;;;1.50;;
76610;SDS011;65503;48.534;9.062;2024-02-26T00:31:03;2.70;;;1.15;;
76610;SDS011;65503;48.534;9.062;2024-02-26T00:33:30;2.08;;;1.02;;
76610;SDS011;65503;48.534;9.062;2024-02-26T00:35:56;3.15;;;1.38;;
76610;SDS011;65503;48.534;9.062;2024-02-26T00:38:23;3.25;;;1.08;;
76610;SDS011;65503;48.534;9.062;2024-02-26T00:40:50;4.50;;;1.15;;
76610;SDS011;65503;48.534;9.062;2024-02-26T00:43:16;3.28;;;1.40;;
76610;SDS011;65503;48.534;9.062;2024-02-26T00:45:44;4.65;;;2.10;;
76610;SDS011;65503;48.534;9.062;2024-02-26T00:48:12;5.85;;;2.20;;
76610;SDS011;65503;48.534;9.062;2024-02-26T00:50:40;4.30;;;1.75;;
76610;SDS011;65503;48.534;9.062;2024-02-26T00:53:06;3.60;;;1.45;;
76610;SDS011;65503;48.534;9.062;2024-02-26T00:55:35;3.70;;;1.50;;
76610;SDS011;65503;48.534;9.062;2024-02-26T00:58:01;2.88;;;1.52;;
76610;SDS011;65503;48.534;9.062;2024-02-26T01:00:28;3.47;;;1.65;;
76610;SDS011;65503;48.534;9.062;2024-02-26T01:02:54;3.65;;;1.30;;
76610;SDS011;65503;48.534;9.062;2024-02-26T01:05:21;2.35;;;1.13;;
76610;SDS011;65503;48.534;9.062;2024-02-26T01:07:48;4.03;;;1.20;;
76610;SDS011;65503;48.534;9.062;2024-02-26T01:10:15;2.03;;;1.10;;
76610;SDS011;65503;48.534;9.062;2024-02-26T01:12:41;3.13;;;1.20;;
76610;SDS011;65503;48.534;9.062;2024-02-26T01:15:08;2.83;;;1.30;;
76610;SDS011;65503;48.534;9.062;2024-02-26T01:17:35;3.53;;;1.40;;
76610;SDS011;65503;48.534;9.062;2024-02-26T01:20:02;1.73;;;1.10;;
76610;SDS011;65503;48.534;9.062;2024-02-26T01:22:29;1.67;;;1.10;;
76610;SDS011;65503;48.534;9.062;2024-02-26T01:24:55;4.28;;;1.17;;
76610;SDS011;65503;48.534;9.062;2024-02-26T01:27:23;3.60;;;1.40;;
76610;SDS011;65503;48.534;9.062;2024-02-26T01:29:52;3.08;;;1.63;;
76610;SDS011;65503;48.534;9.062;2024-02-26T01:32:19;3.72;;;1.85;;
76610;SDS011;65503;48.534;9.062;2024-02-26T01:34:46;4.90;;;2.30;;
76610;SDS011;65503;48.534;9.062;2024-02-26T01:37:12;3.80;;;1.70;;
76610;SDS011;65503;48.534;9.062;2024-02-26T01:39:39;4.63;;;1.88;;
76610;SDS011;65503;48.534;9.062;2024-02-26T01:42:08;4.45;;;1.58;;
76610;SDS011;65503;48.534;9.062;2024-02-26T01:44:34;4.55;;;1.50;;
76610;SDS011;65503;48.534;9.062;2024-02-26T01:47:01;3.47;;;1.38;;
76610;SDS011;65503;48.534;9.062;2024-02-26T01:51:55;6.60;;;1.88;;
76610;SDS011;65503;48.534;9.062;2024-02-26T01:54:23;6.97;;;2.50;;
76610;SDS011;65503;48.534;9.062;2024-02-26T01:56:51;5.20;;;2.63;;
76610;SDS011;65503;48.534;9.062;2024-02-26T01:59:17;6.85;;;2.67;;
76610;SDS011;65503;48.534;9.062;2024-02-26T02:01:45;5.60;;;2.75;;
76610;SDS011;65503;48.534;9.062;2024-02-26T02:04:19;6.07;;;2.97;;
76610;SDS011;65503;48.534;9.062;2024-02-26T02:06:47;7.63;;;3.05;;
76610;SDS011;65503;48.534;9.062;2024-02-26T02:09:15;6.28;;;2.83;;
76610;SDS011;65503;48.534;9.062;2024-02-26T02:11:41;9.27;;;3.20;;
76610;SDS011;65503;48.534;9.062;2024-02-26T02:14:08;7.65;;;3.30;;
76610;SDS011;65503;48.534;9.062;2024-02-26T02:16:34;5.95;;;2.63;;
76610;SDS011;65503;48.534;9.062;2024-02-26T02:19:01;5.88;;;2.85;;
76610;SDS011;65503;48.534;9.062;2024-02-26T02:21:28;7.55;;;2.80;;
76610;SDS011;65503;48.534;9.062;2024-02-26T02:23:54;5.97;;;2.55;;
76610;SDS011;65503;48.534;9.062;2024-02-26T02:26:21;6.70;;;2.30;;
76610;SDS011;65503;48.534;9.062;2024-02-26T02:28:47;5.03;;;2.08;;
76610;SDS011;65503;48.534;9.062;2024-02-26T02:31:15;4.45;;;1.98;;
76610;SDS011;65503;48.534;9.062;2024-02-26T02:33:42;4.40;;;1.90;;
76610;SDS011;65503;48.534;9.062;2024-02-26T02:36:09;4.22;;;2.00;;
76610;SDS011;65503;48.534;9.062;2024-02-26T02:38:37;4.90;;;1.90;;
76610;SDS011;65503;48.534;9.062;2024-02-26T02:41:04;4.15;;;1.90;;
76610;SDS011;65503;48.534;9.062;2024-02-26T02:43:31;7.22;;;2.97;;
76610;SDS011;65503;48.534;9.062;2024-02-26T02:45:57;5.88;;;2.58;;
76610;SDS011;65503;48.534;9.062;2024-02-26T02:48:24;5.35;;;2.45;;
76610;SDS011;65503;48.534;9.062;2024-02-26T02:50:51;6.07;;;2.30;;
76610;SDS011;65503;48.534;9.062;2024-02-26T02:53:17;5.38;;;2.50;;
76610;SDS011;65503;48.534;9.062;2024-02-26T02:55:44;5.82;;;2.22;;
76610;SDS011;65503;48.534;9.062;2024-02-26T02:58:11;5.50;;;2.45;;
76610;SDS011;65503;48.534;9.062;2024-02-26T03:00:37;5.85;;;2.80;;
76610;SDS011;65503;48.534;9.062;2024-02-26T03:03:04;5.72;;;2.72;;
76610;SDS011;65503;48.534;9.062;2024-02-26T03:05:31;5.93;;;2.60;;
76610;SDS011;65503;48.534;9.062;2024-02-26T03:07:57;7.57;;;1.88;;
76610;SDS011;65503;48.534;9.062;2024-02-26T03:10:24;3.75;;;1.58;;
76610;SDS011;65503;48.534;9.062;2024-02-26T03:12:50;3.45;;;1.17;;
76610;SDS011;65503;48.534;9.062;2024-02-26T03:15:17;2.67;;;1.20;;
76610;SDS011;65503;48.534;9.062;2024-02-26T03:17:44;2.72;;;1.40;;
76610;SDS011;65503;48.534;9.062;2024-02-26T03:20:10;3.45;;;1.33;;
76610;SDS011;65503;48.534;9.062;2024-02-26T03:22:38;2.53;;;1.25;;
76610;SDS011;65503;48.534;9.062;2024-02-26T03:27:32;4.05;;;1.38;;
76610;SDS011;65503;48.534;9.062;2024-02-26T03:29:59;3.10;;;1.30;;
76610;SDS011;65503;48.534;9.062;2024-02-26T03:32:25;3.72;;;1.60;;
76610;SDS011;65503;48.534;9.062;2024-02-26T03:34:52;4.90;;;2.20;;
76610;SDS011;65503;48.534;9.062;2024-02-26T03:37:22;6.28;;;2.38;;
76610;SDS011;65503;48.534;9.062;2024-02-26T03:39:49;5.78;;;2.03;;
76610;SDS011;65503;48.534;9.062;2024-02-26T03:42:15;5.65;;;2.10;;
76610;SDS011;65503;48.534;9.062;2024-02-26T03:44:42;4.15;;;2.03;;
76610;SDS011;65503;48.534;9.062;2024-02-26T03:47:09;4.25;;;2.00;;
76610;SDS011;65503;48.534;9.062;2024-02-26T03:49:36;5.50;;;2.10;;
76610;SDS011;65503;48.534;9.062;2024-02-26T03:52:03;5.93;;;2.20;;
76610;SDS011;65503;48.534;9.062;2024-02-26T03:54:29;4.47;;;2.25;;
76610;SDS011;65503;48.534;9.062;2024-02-26T03:56:56;4.55;;;2.20;;
76610;SDS011;65503;48.534;9.062;2024-02-26T03:59:22;4.68;;;2.08;;
76610;SDS011;65503;48.534;9.062;2024-02-26T04:01:51;4.47;;;1.95;;
76610;SDS011;65503;48.534;9.062;2024-02-26T04:04:17;3.72;;;1.70;;
76610;SDS011;65503;48.534;9.062;2024-02-26T04:06:44;7.20;;;2.13;;
76610;SDS011;65503;48.534;9.062;2024-02-26T04:09:15;4.78;;;2.22;;
76610;SDS011;65503;48.534;9.062;2024-02-26T04:11:42;5.32;;;2.08;;
76610;SDS011;65503;48.534;9.062;2024-02-26T04:14:11;5.68;;;2.33;;
76610;SDS011;65503;48.534;9.062;2024-02-26T04:16:38;5.32;;;2.13;;
76610;SDS011;65503;48.534;9.062;2024-02-26T04:19:05;5.72;;;2.40;;
76610;SDS011;65503;48.534;9.062;2024-02-26T04:21:33;6.30;;;2.80;;
76610;SDS011;65503;48.534;9.062;2024-02-26T04:24:01;5.03;;;2.38;;
76610;SDS011;65503;48.534;9.062;2024-02-26T04:26:29;4.88;;;2.22;;
76610;SDS011;65503;48.534;9.062;2024-02-26T04:28:56;5.05;;;2.50;;
76610;SDS011;65503;48.534;9.062;2024-02-26T04:31:23;4.03;;;2.10;;
76610;SDS011;65503;48.534;9.062;2024-02-26T04:33:49;5.65;;;2.20;;
76610;SDS011;65503;48.534;9.062;2024-02-26T04:36:16;5.70;;;2.20;;
76610;SDS011;65503;48.534;9.062;2024-02-26T04:38:43;6.18;;;2.38;;
76610;SDS011;65503;48.534;9.062;2024-02-26T04:41:10;5.15;;;2.35;;
76610;SDS011;65503;48.534;9.062;2024-02-26T04:43:37;8.63;;;2.60;;
76610;SDS011;65503;48.534;9.062;2024-02-26T04:46:10;5.88;;;2.33;;
76610;SDS011;65503;48.534;9.062;2024-02-26T04:48:37;4.80;;;2.10;;
76610;SDS011;65503;48.534;9.062;2024-02-26T04:51:05;5.60;;;2.40;;
76610;SDS011;65503;48.534;9.062;2024-02-26T04:53:32;5.13;;;2.10;;
76610;SDS011;65503;48.534;9.062;2024-02-26T04:55:58;4.65;;;2.15;;
76610;SDS011;65503;48.534;9.062;2024-02-26T04:58:25;4.15;;;1.88;;
76610;SDS011;65503;48.534;9.062;2024-02-26T05:00:52;3.85;;;1.60;;
76610;SDS011;65503;48.534;9.062;2024-02-26T05:03:18;4.90;;;2.13;;
76610;SDS011;65503;48.534;9.062;2024-02-26T05:05:45;2.80;;;1.40;;
76610;SDS011;65503;48.534;9.062;2024-02-26T05:08:12;4.22;;;1.45;;
76610;SDS011;65503;48.534;9.062;2024-02-26T05:10:38;3.17;;;1.50;;
76610;SDS011;65503;48.534;9.062;2024-02-26T05:13:09;4.75;;;1.60;;
76610;SDS011;65503;48.534;9.062;2024-02-26T05:15:35;3.40;;;1.70;;
76610;SDS011;65503;48.534;9.062;2024-02-26T05:18:02;5.53;;;2.33;;
76610;SDS011;65503;48.534;9.062;2024-02-26T05:20:30;8.75;;;2.45;;
76610;SDS011;65503;48.534;9.062;2024-02-26T05:22:57;5.13;;;2.05;;
76610;SDS011;65503;48.534;9.062;2024-02-26T05:25:25;6.32;;;2.70;;
76610;SDS011;65503;48.534;9.062;2024-02-26T05:27:51;4.95;;;2.40;;
76610;SDS011;65503;48.534;9.062;2024-02-26T05:30:18;5.25;;;2.00;;
76610;SDS011;65503;48.534;9.062;2024-02-26T05:32:45;5.65;;;2.22;;
76610;SDS011;65503;48.534;9.062;2024-02-26T05:35:12;6.03;;;2.47;;
76610;SDS011;65503;48.534;9.062;2024-02-26T05:37:38;4.20;;;1.90;;
76610;SDS011;65503;48.534;9.062;2024-02-26T05:40:05;5.00;;;2.22;;
76610;SDS011;65503;48.534;9.062;2024-02-26T05:42:32;4.00;;;1.90;;
76610;SDS011;65503;48.534;9.062;2024-02-26T05:44:59;6.97;;;2.25;;
76610;SDS011;65503;48.534;9.062;2024-02-26T05:47:34;4.82;;;2.15;;
76610;SDS011;65503;48.534;9.062;2024-02-26T05:50:01;4.45;;;2.10;;
76610;SDS011;65503;48.534;9.062;2024-02-26T05:52:28;5.32;;;2.47;;
76610;SDS011;65503;48.534;9.062;2024-02-26T05:54:56;6.57;;;3.17;;
76610;SDS011;65503;48.534;9.062;2024-02-26T05:57:22;5.60;;;2.42;;
76610;SDS011;65503;48.534;9.062;2024-02-26T05:59:49;5.40;;;2.30;;
76610;SDS011;65503;48.534;9.062;2024-02-26T06:02:15;4.65;;;2.20;;
76610;SDS011;65503;48.534;9.062;2024-02-26T06:04:42;4.40;;;2.28;;
76610;SDS011;65503;48.534;9.062;2024-02-26T06:07:08;5.13;;;2.33;;
76610;SDS011;65503;48.534;9.062;2024-02-26T06:09:35;5.93;;;2.58;;
76610;SDS011;65503;48.534;9.062;2024-02-26T06:12:02;4.95;;;2.10;;
76610;SDS011;65503;48.534;9.062;2024-02-26T06:14:29;3.80;;;1.75;;
76610;SDS011;65503;48.534;9.062;2024-02-26T06:16:56;4.43;;;2.22;;
76610;SDS011;65503;48.534;9.062;2024-02-26T06:19:23;3.28;;;1.50;;
76610;SDS011;65503;48.534;9.062;2024-02-26T06:21:50;4.68;;;2.00;;
76610;SDS011;65503;48.534;9.062;2024-02-26T06:24:17;5.65;;;2.65;;
76610;SDS011;65503;48.534;9.062;2024-02-26T06:26:43;6.63;;;2.50;;
76610;SDS011;65503;48.534;9.062;2024-02-26T06:29:10;5.43;;;2.28;;
76610;SDS011;65503;48.534;9.062;2024-02-26T06:31:37;5.88;;;2.40;;
76610;SDS011;65503;48.534;9.062;2024-02-26T06:34:03;4.63;;;2.10;;
76610;SDS011;65503;48.534;9.062;2024-02-26T06:36:30;7.13;;;2.50;;
76610;SDS011;65503;48.534;9.062;2024-02-26T06:38:58;5.35;;;2.25;;
76610;SDS011;65503;48.534;9.062;2024-02-26T06:41:25;5.13;;;2.08;;
76610;SDS011;65503;48.534;9.062;2024-02-26T06:43:56;3.72;;;2.15;;
76610;SDS011;65503;48.534;9.062;2024-02-26T06:46:23;4.72;;;2.45;;
76610;SDS011;65503;48.534;9.062;2024-02-26T06:48:49;6.03;;;2.47;;
76610;SDS011;65503;48.534;9.062;2024-02-26T06:51:20;5.97;;;2.53;;
76610;SDS011;65503;48.534;9.062;2024-02-26T06:53:47;5.90;;;2.63;;
76610;SDS011;65503;48.534;9.062;2024-02-26T06:56:14;5.53;;;2.50;;
76610;SDS011;65503;48.534;9.062;2024-02-26T06:58:41;6.45;;;2.40;;
76610;SDS011;65503;48.534;9.062;2024-02-26T07:01:07;4.85;;;2.47;;
76610;SDS011;65503;48.534;9.062;2024-02-26T07:03:37;5.53;;;2.80;;
76610;SDS011;65503;48.534;9.062;2024-02-26T07:06:04;6.95;;;2.85;;
76610;SDS011;65503;48.534;9.062;2024-02-26T07:08:30;6.35;;;3.00;;
76610;SDS011;65503;48.534;9.062;2024-02-26T07:10:57;5.70;;;2.58;;
76610;SDS011;65503;48.534;9.062;2024-02-26T07:13:24;6.53;;;3.08;;
76610;SDS011;65503;48.534;9.062;2024-02-26T07:15:50;6.78;;;2.33;;
76610;SDS011;65503;48.534;9.062;2024-02-26T07:18:17;7.80;;;3.53;;
76610;SDS011;65503;48.534;9.062;2024-02-26T07:20:43;8.35;;;3.50;;
76610;SDS011;65503;48.534;9.062;2024-02-26T07:23:10;7.88;;;3.30;;
76610;SDS011;65503;48.534;9.062;2024-02-26T07:25:37;7.93;;;3.70;;
76610;SDS011;65503;48.534;9.062;2024-02-26T07:28:04;6.57;;;3.28;;
76610;SDS011;65503;48.534;9.062;2024-02-26T07:30:30;7.35;;;3.60;;
76610;SDS011;65503;48.534;9.062;2024-02-26T07:32:57;6.28;;;3.13;;
76610;SDS011;65503;48.534;9.062;2024-02-26T07:35:24;6.22;;;3.42;;
76610;SDS011;65503;48.534;9.062;2024-02-26T07:37:51;6.03;;;3.17;;
76610;SDS011;65503;48.534;9.062;2024-02-26T07:40:18;6.47;;;2.72;;
76610;SDS011;65503;48.534;9.062;2024-02-26T07:42:45;6.30;;;2.88;;
76610;SDS011;65503;48.534;9.062;2024-02-26T07:45:11;5.32;;;2.88;;
76610;SDS011;65503;48.534;9.062;2024-02-26T07:47:38;6.50;;;3.08;;
76610;SDS011;65503;48.534;9.062;2024-02-26T07:50:07;8.70;;;4.07;;
76610;SDS011;65503;48.534;9.062;2024-02-26T07:52:35;6.63;;;2.97;;
76610;SDS011;65503;48.534;9.062;2024-02-26T07:55:02;8.70;;;3.08;;
76610;SDS011;65503;48.534;9.062;2024-02-26T07:57:33;5.60;;;2.40;;
76610;SDS011;65503;48.534;9.062;2024-02-26T08:00:03;7.25;;;3.35;;
76610;SDS011;65503;48.534;9.062;2024-02-26T08:04:56;5.75;;;2.95;;
76610;SDS011;65503;48.534;9.062;2024-02-26T08:07:23;6.20;;;2.95;;
76610;SDS011;65503;48.534;9.062;2024-02-26T08:09:50;6.28;;;2.75;;
76610;SDS011;65503;48.534;9.062;2024-02-26T08:12:16;5.40;;;2.70;;
76610;SDS011;65503;48.534;9.062;2024-02-26T08:14:43;5.75;;;2.90;;
76610;SDS011;65503;48.534;9.062;2024-02-26T08:17:10;5.97;;;3.17;;
76610;SDS011;65503;48.534;9.062;2024-02-26T08:19:37;4.82;;;2.30;;
76610;SDS011;65503;48.534;9.062;2024-02-26T08:22:03;4.88;;;2.42;;
76610;SDS011;65503;48.534;9.062;2024-02-26T08:24:30;5.65;;;1.92;;
76610;SDS011;65503;48.534;9.062;2024-02-26T08:26:57;5.68;;;2.28;;
76610;SDS011;65503;48.534;9.062;2024-02-26T08:29:24;5.43;;;2.25;;
76610;SDS011;65503;48.534;9.062;2024-02-26T08:31:50;4.65;;;2.30;;
76610;SDS011;65503;48.534;9.062;2024-02-26T08:34:17;6.18;;;2.13;;
76610;SDS011;65503;48.534;9.062;2024-02-26T08:36:44;9.38;;;3.33;;
76610;SDS011;65503;48.534;9.062;2024-02-26T08:39:11;4.90;;;1.73;;
76610;SDS011;65503;48.534;9.062;2024-02-26T08:41:40;4.15;;;1.80;;
76610;SDS011;65503;48.534;9.062;2024-02-26T08:44:07;4.43;;;1.52;;
76610;SDS011;65503;48.534;9.062;2024-02-26T08:46:33;3.33;;;1.40;;
76610;SDS011;65503;48.534;9.062;2024-02-26T08:49:00;3.63;;;1.42;;
76610;SDS011;65503;48.534;9.062;2024-02-26T08:51:26;2.88;;;1.40;;
76610;SDS011;65503;48.534;9.062;2024-02-26T08:53:53;4.10;;;1.58;;
76610;SDS011;65503;48.534;9.062;2024-02-26T08:56:20;3.00;;;1.63;;
76610;SDS011;65503;48.534;9.062;2024-02-26T08:58:47;3.85;;;1.52;;
76610;SDS011;65503;48.534;9.062;2024-02-26T09:01:19;2.78;;;1.15;;
76610;SDS011;65503;48.534;9.062;2024-02-26T09:03:46;2.97;;;1.40;;
76610;SDS011;65503;48.534;9.062;2024-02-26T09:06:14;1.73;;;1.15;;
76610;SDS011;65503;48.534;9.062;2024-02-26T09:08:41;3.10;;;1.35;;
76610;SDS011;65503;48.534;9.062;2024-02-26T09:11:08;2.97;;;1.55;;
76610;SDS011;65503;48.534;9.062;2024-02-26T09:13:36;3.90;;;1.20;;
76610;SDS011;65503;48.534;9.062;2024-02-26T09:16:03;2.85;;;1.27;;
76610;SDS011;65503;48.534;9.062;2024-02-26T09:18:31;2.10;;;1.20;;
76610;SDS011;65503;48.534;9.062;2024-02-26T09:20:57;2.33;;;1.10;;
76610;SDS011;65503;48.534;9.062;2024-02-26T09:23:24;1.70;;;1.02;;
76610;SDS011;65503;48.534;9.062;2024-02-26T09:25:51;2.55;;;1.30;;
76610;SDS011;65503;48.534;9.062;2024-02-26T09:28:18;4.35;;;1.20;;
76610;SDS011;65503;48.534;9.062;2024-02-26T09:30:44;3.58;;;1.60;;
76610;SDS011;65503;48.534;9.062;2024-02-26T09:33:11;3.05;;;1.40;;
76610;SDS011;65503;48.534;9.062;2024-02-26T09:35:39;4.70;;;2.00;;
76610;SDS011;65503;48.534;9.062;2024-02-26T09:38:06;4.82;;;1.80;;
76610;SDS011;65503;48.534;9.062;2024-02-26T09:40:35;5.75;;;1.80;;
76610;SDS011;65503;48.534;9.062;2024-02-26T09:43:04;2.97;;;1.23;;
76610;SDS011;65503;48.534;9.062;2024-02-26T09:45:32;2.10;;;1.20;;
76610;SDS011;65503;48.534;9.062;2024-02-26T09:48:00;2.42;;;1.20;;
76610;SDS011;65503;48.534;9.062;2024-02-26T09:50:30;2.42;;;1.27;;
76610;SDS011;65503;48.534;9.062;2024-02-26T09:52:57;3.22;;;1.20;;
76610;SDS011;65503;48.534;9.062;2024-02-26T09:55:26;2.17;;;1.13;;
76610;SDS011;65503;48.534;9.062;2024-02-26T09:57:52;2.45;;;1.20;;
76610;SDS011;65503;48.534;9.062;2024-02-26T10:00:20;1.38;;;0.93;;
76610;SDS011;65503;48.534;9.062;2024-02-26T10:02:48;3.42;;;1.35;;
76610;SDS011;65503;48.534;9.062;2024-02-26T10:05:18;3.80;;;1.10;;
76610;SDS011;65503;48.534;9.062;2024-02-26T10:07:46;2.78;;;1.30;;
76610;SDS011;65503;48.534;9.062;2024-02-26T10:10:13;3.38;;;1.58;;
76610;SDS011;65503;48.534;9.062;2024-02-26T10:12:40;3.00;;;1.40;;
76610;SDS011;65503;48.534;9.062;2024-02-26T10:15:07;4.47;;;1.70;;
76610;SDS011;65503;48.534;9.062;2024-02-26T10:17:34;3.38;;;1.60;;
76610;SDS011;65503;48.534;9.062;2024-02-26T10:20:18;4.10;;;1.65;;
76610;SDS011;65503;48.534;9.062;2024-02-26T10:22:48;3.00;;;1.50;;
76610;SDS011;65503;48.534;9.062;2024-02-26T10:25:14;6.10;;;1.52;;
76610;SDS011;65503;48.534;9.062;2024-02-26T10:27:41;11.13;;;2.28;;
76610;SDS011;65503;48.534;9.062;2024-02-26T10:30:21;17.25;;;2.60;;
76610;SDS011;65503;48.534;9.062;2024-02-26T10:32:49;3.97;;;1.60;;
76610;SDS011;65503;48.534;9.062;2024-02-26T10:35:16;10.40;;;1.92;;
76610;SDS011;65503;48.534;9.062;2024-02-26T10:37:47;6.85;;;1.77;;
76610;SDS011;65503;48.534;9.062;2024-02-26T10:40:15;6.20;;;2.20;;
76610;SDS011;65503;48.534;9.062;2024-02-26T10:42:42;9.57;;;2.20;;
76610;SDS011;65503;48.534;9.062;2024-02-26T10:45:11;6.85;;;1.50;;
76610;SDS011;65503;48.534;9.062;2024-02-26T10:47:38;5.07;;;1.80;;
76610;SDS011;65503;48.534;9.062;2024-02-26T10:50:06;4.20;;;1.92;;
76610;SDS011;65503;48.534;9.062;2024-02-26T10:52:34;3.22;;;1.38;;
76610;SDS011;65503;48.534;9.062;2024-02-26T10:55:02;4.93;;;1.50;;
76610;SDS011;65503;48.534;9.062;2024-02-26T10:57:35;3.60;;;1.33;;
76610;SDS011;65503;48.534;9.062;2024-02-26T11:00:08;4.03;;;1.60;;
76610;SDS011;65503;48.534;9.062;2024-02-26T11:02:39;7.20;;;1.92;;
76610;SDS011;65503;48.534;9.062;2024-02-26T11:05:06;4.85;;;1.95;;
76610;SDS011;65503;48.534;9.062;2024-02-26T11:07:34;4.57;;;1.65;;
76610;SDS011;65503;48.534;9.062;2024-02-26T11:10:03;4.68;;;2.00;;
76610;SDS011;65503;48.534;9.062;2024-02-26T11:12:32;3.13;;;1.60;;
76610;SDS011;65503;48.534;9.062;2024-02-26T11:15:02;5.45;;;1.50;;
76610;SDS011;65503;48.534;9.062;2024-02-26T11:17:29;4.35;;;1.60;;
76610;SDS011;65503;48.534;9.062;2024-02-26T11:19:58;4.07;;;1.65;;
76610;SDS011;65503;48.534;9.062;2024-02-26T11:22:25;5.35;;;1.70;;
76610;SDS011;65503;48.534;9.062;2024-02-26T11:24:53;3.55;;;1.50;;
76610;SDS011;65503;48.534;9.062;2024-02-26T11:27:25;6.18;;;1.42;;
76610;SDS011;65503;48.534;9.062;2024-02-26T11:29:56;3.55;;;1.50;;
76610;SDS011;65503;48.534;9.062;2024-02-26T11:32:27;3.13;;;1.27;;
76610;SDS011;65503;48.534;9.062;2024-02-26T11:34:56;2.42;;;1.40;;
76610;SDS011;65503;48.534;9.062;2024-02-26T11:37:24;3.10;;;1.27;;
76610;SDS011;65503;48.534;9.062;2024-02-26T11:39:51;5.10;;;1.60;;
76610;SDS011;65503;48.534;9.062;2024-02-26T11:42:23;3.67;;;1.85;;
76610;SDS011;65503;48.534;9.062;2024-02-26T11:44:55;2.13;;;1.20;;
76610;SDS011;65503;48.534;9.062;2024-02-26T11:47:27;1.83;;;1.10;;
76610;SDS011;65503;48.534;9.062;2024-02-26T11:49:53;4.55;;;1.20;;
76610;SDS011;65503;48.534;9.062;2024-02-26T11:52:20;3.83;;;1.27;;
76610;SDS011;65503;48.534;9.062;2024-02-26T11:54:53;3.70;;;1.20;;
76610;SDS011;65503;48.534;9.062;2024-02-26T11:57:27;2.65;;;1.30;;
76610;SDS011;65503;48.534;9.062;2024-02-26T11:59:56;2.25;;;1.30;;
76610;SDS011;65503;48.534;9.062;2024-02-26T12:02:39;2.92;;;1.40;;
76610;SDS011;65503;48.534;9.062;2024-02-26T12:05:10;4.32;;;1.20;;
76610;SDS011;65503;48.534;9.062;2024-02-26T12:07:48;4.18;;;1.25;;
76610;SDS011;65503;48.534;9.062;2024-02-26T12:10:20;3.05;;;1.17;;
76610;SDS011;65503;48.534;9.062;2024-02-26T12:12:47;2.45;;;1.30;;
76610;SDS011;65503;48.534;9.062;2024-02-26T12:15:14;4.13;;;1.60;;
76610;SDS011;65503;48.534;9.062;2024-02-26T12:17:41;3.92;;;1.80;;
76610;SDS011;65503;48.534;9.062;2024-02-26T12:20:10;7.53;;;1.50;;
76610;SDS011;65503;48.534;9.062;2024-02-26T12:22:44;3.53;;;1.60;;
76610;SDS011;65503;48.534;9.062;2024-02-26T12:25:12;3.45;;;1.60;;
76610;SDS011;65503;48.534;9.062;2024-02-26T12:27:39;2.40;;;1.17;;
76610;SDS011;65503;48.534;9.062;2024-02-26T12:30:06;3.05;;;1.33;;
76610;SDS011;65503;48.534;9.062;2024-02-26T12:32:33;3.53;;;1.55;;
76610;SDS011;65503;48.534;9.062;2024-02-26T12:35:01;4.60;;;1.40;;
76610;SDS011;65503;48.534;9.062;2024-02-26T12:37:28;2.80;;;1.20;;
76610;SDS011;65503;48.534;9.062;2024-02-26T12:39:54;3.35;;;1.42;;
76610;SDS011;65503;48.534;9.062;2024-02-26T12:42:21;1.98;;;1.30;;
76610;SDS011;65503;48.534;9.062;2024-02-26T12:44:49;2.92;;;1.20;;
76610;SDS011;65503;48.534;9.062;2024-02-26T12:47:15;3.70;;;1.60;;
76610;SDS011;65503;48.534;9.062;2024-02-26T12:49:43;2.80;;;1.40;;
76610;SDS011;65503;48.534;9.062;2024-02-26T12:52:10;2.30;;;1.02;;
76610;SDS011;65503;48.534;9.062;2024-02-26T12:54:37;2.17;;;1.30;;
76610;SDS011;65503;48.534;9.062;2024-02-26T12:57:08;3.53;;;1.35;;
76610;SDS011;65503;48.534;9.062;2024-02-26T12:59:35;1.27;;;1.00;;
76610;SDS011;65503;48.534;9.062;2024-02-26T13:02:03;3.10;;;1.35;;
76610;SDS011;65503;48.534;9.062;2024-02-26T13:04:33;1.52;;;0.90;;
76610;SDS011;65503;48.534;9.062;2024-02-26T13:07:02;1.58;;;0.90;;
76610;SDS011;65503;48.534;9.062;2024-02-26T13:09:34;0.50;;;0.50;;
76610;SDS011;65503;48.534;9.062;2024-02-26T13:12:04;1.30;;;0.68;;
76610;SDS011;65503;48.534;9.062;2024-02-26T13:14:32;1.95;;;0.93;;
76610;SDS011;65503;48.534;9.062;2024-02-26T13:17:00;1.45;;;0.80;;
76610;SDS011;65503;48.534;9.062;2024-02-26T13:19:27;2.17;;;0.90;;
76610;SDS011;65503;48.534;9.062;2024-02-26T13:21:54;1.60;;;0.88;;
76610;SDS011;65503;48.534;9.062;2024-02-26T13:24:21;1.70;;;0.80;;
76610;SDS011;65503;48.534;9.062;2024-02-26T13:26:54;0.85;;;0.60;;
76610;SDS011;65503;48.534;9.062;2024-02-26T13:29:21;1.58;;;0.80;;
76610;SDS011;65503;48.534;9.062;2024-02-26T13:31:48;1.55;;;0.70;;
76610;SDS011;65503;48.534;9.062;2024-02-26T13:34:23;1.70;;;0.85;;
76610;SDS011;65503;48.534;9.062;2024-02-26T13:36:54;1.40;;;0.70;;
76610;SDS011;65503;48.534;9.062;2024-02-26T13:44:15;2.10;;;0.65;;
76610;SDS011;65503;48.534;9.062;2024-02-26T13:46:42;1.60;;;0.80;;
76610;SDS011;65503;48.534;9.062;2024-02-26T13:49:09;1.65;;;0.70;;
76610;SDS011;65503;48.534;9.062;2024-02-26T13:51:37;1.05;;;0.60;;
76610;SDS011;65503;48.534;9.062;2024-02-26T13:54:05;0.50;;;0.50;;
76610;SDS011;65503;48.534;9.062;2024-02-26T13:56:32;1.33;;;0.60;;
76610;SDS011;65503;48.534;9.062;2024-02-26T13:58:59;1.83;;;0.70;;
76610;SDS011;65503;48.534;9.062;2024-02-26T14:01:25;2.58;;;0.60;;
76610;SDS011;65503;48.534;9.062;2024-02-26T14:03:52;0.73;;;0.60;;
76610;SDS011;65503;48.534;9.062;2024-02-26T14:06:21;2.25;;;0.68;;
76610;SDS011;65503;48.534;9.062;2024-02-26T14:08:48;1.13;;;0.65;;
76610;SDS011;65503;48.534;9.062;2024-02-26T14:11:15;0.80;;;0.55;;
76610;SDS011;65503;48.534;9.062;2024-02-26T14:13:41;0.70;;;0.70;;
76610;SDS011;65503;48.534;9.062;2024-02-26T14:16:11;1.33;;;0.70;;
76610;SDS011;65503;48.534;9.062;2024-02-26T14:18:39;0.50;;;0.50;;
76610;SDS011;65503;48.534;9.062;2024-02-26T14:21:07;1.25;;;0.60;;
76610;SDS011;65503;48.534;9.062;2024-02-26T14:23:33;0.77;;;0.60;;
76610;SDS011;65503;48.534;9.062;2024-02-26T14:28:27;1.95;;;0.70;;
76610;SDS011;65503;48.534;9.062;2024-02-26T14:31:01;1.05;;;0.95;;
76610;SDS011;65503;48.534;9.062;2024-02-26T14:33:28;1.90;;;0.90;;
76610;SDS011;65503;48.534;9.062;2024-02-26T14:35:55;2.50;;;0.70;;
76610;SDS011;65503;48.534;9.062;2024-02-26T14:38:22;2.28;;;0.95;;
76610;SDS011;65503;48.534;9.062;2024-02-26T14:40:49;1.65;;;0.70;;
76610;SDS011;65503;48.534;9.062;2024-02-26T14:43:16;0.55;;;0.50;;
76610;SDS011;65503;48.534;9.062;2024-02-26T14:45:43;1.63;;;0.70;;
76610;SDS011;65503;48.534;9.062;2024-02-26T14:48:09;0.65;;;0.65;;
76610;SDS011;65503;48.534;9.062;2024-02-26T14:50:38;1.05;;;0.73;;
76610;SDS011;65503;48.534;9.062;2024-02-26T14:53:04;1.45;;;0.65;;
76610;SDS011;65503;48.534;9.062;2024-02-26T14:55:31;1.25;;;0.80;;
76610;SDS011;65503;48.534;9.062;2024-02-26T14:57:58;2.13;;;0.80;;
76610;SDS011;65503;48.534;9.062;2024-02-26T15:00:25;2.08;;;0.80;;
76610;SDS011;65503;48.534;9.062;2024-02-26T15:02:52;2.65;;;0.93;;
76610;SDS011;65503;48.534;9.062;2024-02-26T15:05:21;1.45;;;0.80;;
76610;SDS011;65503;48.534;9.062;2024-02-26T15:07:47;3.85;;;1.10;;